PWSweather.com
Personal Weather Stations
Station Observations
948974
Valtournenche, AostaIT 11028

ValtournencheAostaIT 11028

Lat: 45.877222, Lon: 7.625556

Elevation: 5085.3018

Station Type: PCE-FWS 20

http://www.cdso.it

High Low Average
Temperature 0.0°F0.0°F 0.0°F0.0°F 0.0°F0.0°F
Dew Point 0.0°F0.0°F 0.0°F0.0°F 0.0°F0.0°F
Winds Calm -Calm - Calm Calm Calm Calm
Wind Gusts -- -- --
Humidity 0% 0% 0%
Pressure 0.00 in0.00 in 0.00 in0.00 in -
Precipitation 0.00 in0.0 mm - -
Hour Temp Dew Point Humidity Winds Wind Gusts Pressure Precip Precip Rate Daily Precip Total
12:10 AM 46.2°F7.9°C 45.4°F7.4°C 97% 2.0 mph SW3.2 kmh SW 3.0 mph4.8 kmh 30.31 in1026.4 mb 0.00 in0.0 mm 0.00 in0.0 mm 0.00 in0.0 mm
12:31 AM 45.9°F7.7°C 45.1°F7.3°C 97% Calm Calm 2.0 mph3.2 kmh 30.32 in1026.8 mb 0.00 in0.0 mm 0.00 in0.0 mm 0.00 in0.0 mm
12:52 AM 45.9°F7.7°C 45.1°F7.3°C 97% 2.0 mph SW3.2 kmh SW 2.0 mph3.2 kmh 30.32 in1026.8 mb 0.01 in0.3 mm 0.03 in0.8 mm 0.01 in0.3 mm
01:13 AM 45.7°F7.6°C 44.9°F7.2°C 97% Calm Calm -- 30.32 in1026.8 mb 0.01 in0.3 mm 0.00 in0.0 mm 0.01 in0.3 mm
01:34 AM 46.0°F7.8°C 45.2°F7.3°C 97% 1.0 mph SW1.6 kmh SW 2.0 mph3.2 kmh 30.31 in1026.4 mb 0.01 in0.3 mm 0.00 in0.0 mm 0.01 in0.3 mm
01:55 AM 46.0°F7.8°C 45.2°F7.3°C 97% 1.0 mph SW1.6 kmh SW 2.0 mph3.2 kmh 30.31 in1026.4 mb 0.00 in0.0 mm 0.00 in0.0 mm 0.01 in0.3 mm
02:16 AM 45.9°F7.7°C 45.1°F7.3°C 97% Calm Calm 1.0 mph1.6 kmh 30.30 in1026.1 mb 0.00 in0.0 mm 0.00 in0.0 mm 0.01 in0.3 mm
02:37 AM 46.2°F7.9°C 45.4°F7.4°C 97% 2.0 mph SW3.2 kmh SW 3.0 mph4.8 kmh 30.29 in1025.7 mb 0.00 in0.0 mm 0.00 in0.0 mm 0.01 in0.3 mm
02:58 AM 45.9°F7.7°C 45.1°F7.3°C 97% 2.0 mph SW3.2 kmh SW 2.0 mph3.2 kmh 30.30 in1026.1 mb 0.00 in0.0 mm 0.00 in0.0 mm 0.01 in0.3 mm
03:19 AM 45.7°F7.6°C 44.9°F7.2°C 97% Calm Calm -- 30.30 in1026.1 mb 0.00 in0.0 mm 0.00 in0.0 mm 0.01 in0.3 mm
03:40 AM 46.0°F7.8°C 45.2°F7.3°C 97% 2.0 mph SW3.2 kmh SW 3.0 mph4.8 kmh 30.30 in1026.1 mb 0.00 in0.0 mm 0.00 in0.0 mm 0.01 in0.3 mm
04:01 AM 45.9°F7.7°C 45.1°F7.3°C 97% 2.0 mph SW3.2 kmh SW 2.0 mph3.2 kmh 30.29 in1025.7 mb 0.00 in0.0 mm 0.00 in0.0 mm 0.01 in0.3 mm
04:22 AM 45.9°F7.7°C 45.1°F7.3°C 97% 2.0 mph SW3.2 kmh SW 2.0 mph3.2 kmh 30.29 in1025.7 mb 0.00 in0.0 mm 0.00 in0.0 mm 0.01 in0.3 mm
04:43 AM 45.7°F7.6°C 44.9°F7.2°C 97% Calm Calm 1.0 mph1.6 kmh 30.29 in1025.7 mb 0.00 in0.0 mm 0.00 in0.0 mm 0.01 in0.3 mm
05:04 AM 45.7°F7.6°C 44.9°F7.2°C 97% Calm Calm 2.0 mph3.2 kmh 30.29 in1025.7 mb 0.00 in0.0 mm 0.00 in0.0 mm 0.01 in0.3 mm
05:25 AM 45.7°F7.6°C 44.9°F7.2°C 97% 1.0 mph SW1.6 kmh SW 2.0 mph3.2 kmh 30.29 in1025.7 mb 0.00 in0.0 mm 0.00 in0.0 mm 0.01 in0.3 mm
05:46 AM 45.5°F7.5°C 44.7°F7.1°C 97% Calm Calm 1.0 mph1.6 kmh 30.29 in1025.7 mb 0.00 in0.0 mm 0.00 in0.0 mm 0.01 in0.3 mm
06:07 AM 45.5°F7.5°C 44.7°F7.1°C 97% 1.0 mph SW1.6 kmh SW 2.0 mph3.2 kmh 30.29 in1025.7 mb 0.00 in0.0 mm 0.00 in0.0 mm 0.01 in0.3 mm
06:28 AM 45.7°F7.6°C 44.9°F7.2°C 97% 4.0 mph SW6.4 kmh SW 4.0 mph6.4 kmh 30.29 in1025.7 mb 0.00 in0.0 mm 0.00 in0.0 mm 0.01 in0.3 mm
06:49 AM 45.3°F7.4°C 44.5°F6.9°C 97% Calm Calm 1.0 mph1.6 kmh 30.30 in1026.1 mb 0.00 in0.0 mm 0.00 in0.0 mm 0.01 in0.3 mm
07:10 AM 45.7°F7.6°C 44.9°F7.2°C 97% Calm Calm -- 30.29 in1025.7 mb 0.00 in0.0 mm 0.00 in0.0 mm 0.01 in0.3 mm
07:31 AM 46.0°F7.8°C 45.2°F7.3°C 97% Calm Calm -- 30.28 in1025.4 mb 0.00 in0.0 mm 0.00 in0.0 mm 0.01 in0.3 mm
07:52 AM 46.0°F7.8°C 45.2°F7.3°C 97% 2.0 mph SW3.2 kmh SW 3.0 mph4.8 kmh 30.28 in1025.4 mb 0.00 in0.0 mm 0.00 in0.0 mm 0.01 in0.3 mm
08:13 AM 46.2°F7.9°C 45.4°F7.4°C 97% Calm Calm 2.0 mph3.2 kmh 30.29 in1025.7 mb 0.00 in0.0 mm 0.00 in0.0 mm 0.01 in0.3 mm
08:34 AM 46.4°F8.0°C 46.1°F7.8°C 99% 2.0 mph SW3.2 kmh SW 4.0 mph6.4 kmh 30.28 in1025.4 mb 0.00 in0.0 mm 0.00 in0.0 mm 0.01 in0.3 mm
08:55 AM 46.9°F8.3°C 46.7°F8.2°C 99% 1.0 mph SW1.6 kmh SW 2.0 mph3.2 kmh 30.28 in1025.4 mb 0.00 in0.0 mm 0.00 in0.0 mm 0.01 in0.3 mm
09:16 AM 48.0°F8.9°C 47.8°F8.8°C 99% 2.0 mph SW3.2 kmh SW 2.0 mph3.2 kmh 30.26 in1024.7 mb 0.00 in0.0 mm 0.00 in0.0 mm 0.01 in0.3 mm
09:37 AM 47.5°F8.6°C 47.2°F8.4°C 99% Calm Calm -- 30.28 in1025.4 mb 0.00 in0.0 mm 0.00 in0.0 mm 0.01 in0.3 mm
09:58 AM 47.1°F8.4°C 46.9°F8.3°C 99% 1.0 mph SW1.6 kmh SW 2.0 mph3.2 kmh 30.28 in1025.4 mb 0.00 in0.0 mm 0.00 in0.0 mm 0.01 in0.3 mm
10:19 AM 47.5°F8.6°C 47.2°F8.4°C 99% 3.0 mph SW4.8 kmh SW 4.0 mph6.4 kmh 30.28 in1025.4 mb 0.00 in0.0 mm 0.00 in0.0 mm 0.01 in0.3 mm
10:40 AM 48.2°F9.0°C 47.9°F8.8°C 99% Calm Calm -- 30.27 in1025.1 mb 0.00 in0.0 mm 0.00 in0.0 mm 0.01 in0.3 mm
11:01 AM 50.2°F10.1°C 49.9°F9.9°C 99% 1.0 mph SW1.6 kmh SW 2.0 mph3.2 kmh 30.23 in1023.7 mb 0.00 in0.0 mm 0.00 in0.0 mm 0.01 in0.3 mm
11:22 AM 49.6°F9.8°C 49.4°F9.7°C 99% 2.0 mph SW3.2 kmh SW 3.0 mph4.8 kmh 30.23 in1023.7 mb 0.00 in0.0 mm 0.00 in0.0 mm 0.01 in0.3 mm
11:43 AM 50.7°F10.4°C 50.4°F10.2°C 99% 2.0 mph SW3.2 kmh SW 4.0 mph6.4 kmh 30.22 in1023.4 mb 0.00 in0.0 mm 0.00 in0.0 mm 0.01 in0.3 mm
12:04 PM 51.8°F11.0°C 49.3°F9.6°C 91% 4.0 mph SW6.4 kmh SW 7.0 mph11.3 kmh 30.21 in1023.0 mb 0.00 in0.0 mm 0.00 in0.0 mm 0.01 in0.3 mm
12:25 PM 51.6°F10.9°C 48.2°F9.0°C 88% 2.0 mph SW3.2 kmh SW 3.0 mph4.8 kmh 30.22 in1023.4 mb 0.00 in0.0 mm 0.00 in0.0 mm 0.01 in0.3 mm
12:46 PM 53.6°F12.0°C 49.2°F9.6°C 85% 2.0 mph SW3.2 kmh SW 2.0 mph3.2 kmh 30.20 in1022.7 mb 0.00 in0.0 mm 0.00 in0.0 mm 0.01 in0.3 mm
01:07 PM 55.0°F12.8°C 46.9°F8.3°C 74% 2.0 mph SW3.2 kmh SW 3.0 mph4.8 kmh 30.17 in1021.7 mb 0.00 in0.0 mm 0.00 in0.0 mm 0.01 in0.3 mm
01:28 PM 55.8°F13.2°C 47.6°F8.7°C 74% 5.0 mph SW8.0 kmh SW 7.0 mph11.3 kmh 30.16 in1021.3 mb 0.00 in0.0 mm 0.00 in0.0 mm 0.01 in0.3 mm
01:49 PM 56.3°F13.5°C 47.4°F8.6°C 72% 4.0 mph SW6.4 kmh SW 6.0 mph9.7 kmh 30.14 in1020.7 mb 0.00 in0.0 mm 0.00 in0.0 mm 0.01 in0.3 mm
02:10 PM 55.8°F13.2°C 48.7°F9.3°C 77% 4.0 mph SW6.4 kmh SW 6.0 mph9.7 kmh 30.15 in1021.0 mb 0.00 in0.0 mm 0.00 in0.0 mm 0.01 in0.3 mm
02:31 PM 57.0°F13.9°C 48.4°F9.1°C 73% 5.0 mph SW8.0 kmh SW 8.0 mph12.9 kmh 30.12 in1020.0 mb 0.00 in0.0 mm 0.00 in0.0 mm 0.01 in0.3 mm
02:52 PM -- -- - - N N -- -- 0.00 in0.0 mm 0.00 in0.0 mm 0.01 in0.3 mm
03:13 PM 55.4°F13.0°C 48.3°F9.1°C 77% 3.0 mph SW4.8 kmh SW 4.0 mph6.4 kmh 30.13 in1020.3 mb 0.00 in0.0 mm 0.00 in0.0 mm 0.01 in0.3 mm
03:34 PM 54.5°F12.5°C 47.4°F8.6°C 77% 1.0 mph SW1.6 kmh SW 2.0 mph3.2 kmh 30.13 in1020.3 mb 0.00 in0.0 mm 0.00 in0.0 mm 0.01 in0.3 mm
03:55 PM 54.7°F12.6°C 47.3°F8.5°C 76% 3.0 mph SW4.8 kmh SW 5.0 mph8.0 kmh 30.12 in1020.0 mb 0.00 in0.0 mm 0.00 in0.0 mm 0.01 in0.3 mm
04:16 PM 52.5°F11.4°C 47.2°F8.4°C 82% 4.0 mph SW6.4 kmh SW 6.0 mph9.7 kmh 30.16 in1021.3 mb 0.00 in0.0 mm 0.00 in0.0 mm 0.01 in0.3 mm
04:37 PM 53.1°F11.7°C 48.0°F8.9°C 83% 1.0 mph SW1.6 kmh SW 2.0 mph3.2 kmh 30.15 in1021.0 mb 0.00 in0.0 mm 0.00 in0.0 mm 0.01 in0.3 mm
04:58 PM 54.0°F12.2°C 47.9°F8.8°C 80% 2.0 mph SW3.2 kmh SW 2.0 mph3.2 kmh 30.14 in1020.7 mb 0.00 in0.0 mm 0.00 in0.0 mm 0.01 in0.3 mm
05:19 PM 52.9°F11.6°C 48.2°F9.0°C 84% Calm Calm 1.0 mph1.6 kmh 30.14 in1020.7 mb 0.00 in0.0 mm 0.00 in0.0 mm 0.01 in0.3 mm
05:40 PM 51.3°F10.7°C 47.2°F8.4°C 86% 4.0 mph SW6.4 kmh SW 5.0 mph8.0 kmh 30.14 in1020.7 mb 0.00 in0.0 mm 0.00 in0.0 mm 0.01 in0.3 mm
06:01 PM 48.6°F9.2°C 47.2°F8.4°C 95% 4.0 mph SW6.4 kmh SW 6.0 mph9.7 kmh 30.18 in1022.0 mb 0.00 in0.0 mm 0.00 in0.0 mm 0.01 in0.3 mm
06:22 PM -- -- - - N N -- -- 0.00 in0.0 mm 0.00 in0.0 mm 0.01 in0.3 mm
06:43 PM -- -- - - N N -- -- 0.00 in0.0 mm 0.00 in0.0 mm 0.01 in0.3 mm
07:04 PM -- -- - - N N -- -- 0.00 in0.0 mm 0.00 in0.0 mm 0.01 in0.3 mm
07:25 PM -- -- - - N N -- -- 0.00 in0.0 mm 0.00 in0.0 mm 0.01 in0.3 mm
07:46 PM -- -- - - N N -- -- 0.00 in0.0 mm 0.00 in0.0 mm 0.01 in0.3 mm
08:07 PM 47.7°F8.7°C 47.4°F8.6°C 99% 3.0 mph SW4.8 kmh SW 4.0 mph6.4 kmh 30.22 in1023.4 mb 0.00 in0.0 mm 0.00 in0.0 mm 0.01 in0.3 mm
08:28 PM -- -- - - N N -- -- 0.00 in0.0 mm 0.00 in0.0 mm 0.01 in0.3 mm
08:49 PM -- -- - - N N -- -- 0.00 in0.0 mm 0.00 in0.0 mm 0.01 in0.3 mm
09:10 PM -- -- - - N N -- -- 0.00 in0.0 mm 0.00 in0.0 mm 0.01 in0.3 mm
09:31 PM -- -- - - N N -- -- 0.00 in0.0 mm 0.00 in0.0 mm 0.01 in0.3 mm
09:52 PM -- -- - - N N -- -- 0.00 in0.0 mm 0.00 in0.0 mm 0.01 in0.3 mm
10:13 PM 46.9°F8.3°C 46.7°F8.2°C 99% Calm Calm -- 30.20 in1022.7 mb 0.00 in0.0 mm 0.00 in0.0 mm 0.01 in0.3 mm
10:34 PM 47.3°F8.5°C 47.0°F8.3°C 99% 2.0 mph SW3.2 kmh SW 3.0 mph4.8 kmh 30.20 in1022.7 mb 0.00 in0.0 mm 0.00 in0.0 mm 0.01 in0.3 mm
10:55 PM 47.7°F8.7°C 47.4°F8.6°C 99% 1.0 mph SW1.6 kmh SW 2.0 mph3.2 kmh 30.19 in1022.4 mb 0.00 in0.0 mm 0.00 in0.0 mm 0.01 in0.3 mm
11:16 PM 47.7°F8.7°C 47.4°F8.6°C 99% 2.0 mph SW3.2 kmh SW 3.0 mph4.8 kmh 30.19 in1022.4 mb 0.00 in0.0 mm 0.00 in0.0 mm 0.01 in0.3 mm
11:37 PM 46.8°F8.2°C 46.5°F8.1°C 99% 2.0 mph SW3.2 kmh SW 2.0 mph3.2 kmh 30.19 in1022.4 mb 0.00 in0.0 mm 0.00 in0.0 mm 0.01 in0.3 mm
11:58 PM 46.9°F8.3°C 46.7°F8.2°C 99% 2.0 mph SW3.2 kmh SW 3.0 mph4.8 kmh 30.18 in1022.0 mb 0.00 in0.0 mm 0.00 in0.0 mm 0.01 in0.3 mm